sensor_id;sensor_type;location;lat;lon;timestamp;pressure;altitude;pressure_sealevel;temperature;humidity
75852;BME280;64500;52.632;20.656;2023-09-07T00:02:05;101379.68;;;38.96;19.48
75852;BME280;64500;52.632;20.656;2023-09-07T00:04:32;101381.16;;;39.01;19.51
75852;BME280;64500;52.632;20.656;2023-09-07T00:06:59;101384.83;;;38.99;19.44
75852;BME280;64500;52.632;20.656;2023-09-07T00:09:27;101382.04;;;38.99;19.63
75852;BME280;64500;52.632;20.656;2023-09-07T00:11:54;101389.33;;;38.98;19.31
75852;BME280;64500;52.632;20.656;2023-09-07T00:14:21;101387.35;;;38.92;19.23
75852;BME280;64500;52.632;20.656;2023-09-07T00:16:48;101385.90;;;38.74;19.55
75852;BME280;64500;52.632;20.656;2023-09-07T00:19:15;101384.17;;;38.69;19.47
75852;BME280;64500;52.632;20.656;2023-09-07T00:21:43;101381.89;;;38.75;19.36
75852;BME280;64500;52.632;20.656;2023-09-07T00:24:10;101384.23;;;38.70;19.50
75852;BME280;64500;52.632;20.656;2023-09-07T00:26:37;101382.79;;;38.70;19.55
75852;BME280;64500;52.632;20.656;2023-09-07T00:29:04;101384.04;;;38.69;19.76
75852;BME280;64500;52.632;20.656;2023-09-07T00:31:33;101383.89;;;38.66;19.75
75852;BME280;64500;52.632;20.656;2023-09-07T00:34:00;101385.35;;;38.63;19.55
75852;BME280;64500;52.632;20.656;2023-09-07T00:36:27;101385.23;;;38.61;19.70
75852;BME280;64500;52.632;20.656;2023-09-07T00:38:55;101388.92;;;38.33;19.47
75852;BME280;64500;52.632;20.656;2023-09-07T00:41:23;101386.77;;;38.03;19.34
75852;BME280;64500;52.632;20.656;2023-09-07T00:43:51;101394.83;;;37.97;19.75
75852;BME280;64500;52.632;20.656;2023-09-07T00:46:18;101386.04;;;38.05;19.80
75852;BME280;64500;52.632;20.656;2023-09-07T00:48:45;101386.88;;;38.11;19.81
75852;BME280;64500;52.632;20.656;2023-09-07T00:51:13;101387.85;;;38.24;20.00
75852;BME280;64500;52.632;20.656;2023-09-07T00:53:39;101392.31;;;38.24;19.92
75852;BME280;64500;52.632;20.656;2023-09-07T00:56:07;101390.81;;;38.35;19.84
75852;BME280;64500;52.632;20.656;2023-09-07T00:58:34;101393.76;;;38.42;19.70
75852;BME280;64500;52.632;20.656;2023-09-07T01:01:02;101389.93;;;38.41;19.80
75852;BME280;64500;52.632;20.656;2023-09-07T01:03:29;101390.56;;;38.42;19.92
75852;BME280;64500;52.632;20.656;2023-09-07T01:06:28;101385.08;;;38.36;20.02
75852;BME280;64500;52.632;20.656;2023-09-07T01:09:00;101382.48;;;38.33;19.63
75852;BME280;64500;52.632;20.656;2023-09-07T01:11:36;101386.98;;;38.31;19.95
75852;BME280;64500;52.632;20.656;2023-09-07T01:14:04;101388.56;;;38.27;19.97
75852;BME280;64500;52.632;20.656;2023-09-07T01:16:32;101387.26;;;38.26;20.11
75852;BME280;64500;52.632;20.656;2023-09-07T01:19:01;101389.33;;;38.27;19.92
75852;BME280;64500;52.632;20.656;2023-09-07T01:21:35;101389.84;;;38.28;19.96
75852;BME280;64500;52.632;20.656;2023-09-07T01:24:06;101389.11;;;38.46;20.15
75852;BME280;64500;52.632;20.656;2023-09-07T01:26:34;101388.95;;;38.56;19.79
75852;BME280;64500;52.632;20.656;2023-09-07T01:29:02;101387.23;;;38.58;19.79
75852;BME280;64500;52.632;20.656;2023-09-07T01:31:29;101388.30;;;38.64;20.11
75852;BME280;64500;52.632;20.656;2023-09-07T01:33:56;101392.00;;;38.55;19.80
75852;BME280;64500;52.632;20.656;2023-09-07T01:36:23;101388.81;;;38.34;19.71
75852;BME280;64500;52.632;20.656;2023-09-07T01:38:50;101384.48;;;38.32;19.98
75852;BME280;64500;52.632;20.656;2023-09-07T01:41:17;101386.56;;;38.31;19.88
75852;BME280;64500;52.632;20.656;2023-09-07T01:43:44;101379.00;;;38.15;19.79
75852;BME280;64500;52.632;20.656;2023-09-07T01:46:11;101380.83;;;38.08;20.00
75852;BME280;64500;52.632;20.656;2023-09-07T01:48:38;101381.81;;;38.16;20.11
75852;BME280;64500;52.632;20.656;2023-09-07T01:51:05;101385.27;;;38.30;20.06
75852;BME280;64500;52.632;20.656;2023-09-07T01:53:33;101382.45;;;38.38;19.78
75852;BME280;64500;52.632;20.656;2023-09-07T01:56:01;101383.36;;;38.23;19.86
75852;BME280;64500;52.632;20.656;2023-09-07T01:58:28;101384.73;;;38.17;19.89
75852;BME280;64500;52.632;20.656;2023-09-07T02:00:58;101386.98;;;38.28;19.96
75852;BME280;64500;52.632;20.656;2023-09-07T02:03:26;101388.03;;;38.15;19.95
75852;BME280;64500;52.632;20.656;2023-09-07T02:05:54;101384.91;;;38.18;19.90
75852;BME280;64500;52.632;20.656;2023-09-07T02:08:21;101385.27;;;38.31;20.06
75852;BME280;64500;52.632;20.656;2023-09-07T02:10:48;101386.95;;;38.31;20.08
75852;BME280;64500;52.632;20.656;2023-09-07T02:13:15;101386.11;;;38.19;19.86
75852;BME280;64500;52.632;20.656;2023-09-07T02:15:42;101384.48;;;38.19;20.30
75852;BME280;64500;52.632;20.656;2023-09-07T02:18:10;101387.05;;;38.29;20.41
75852;BME280;64500;52.632;20.656;2023-09-07T02:20:37;101390.45;;;38.28;20.19
75852;BME280;64500;52.632;20.656;2023-09-07T02:23:04;101390.10;;;38.24;20.09
75852;BME280;64500;52.632;20.656;2023-09-07T02:25:31;101390.27;;;38.31;20.18
75852;BME280;64500;52.632;20.656;2023-09-07T02:27:58;101395.35;;;38.36;20.15
75852;BME280;64500;52.632;20.656;2023-09-07T02:30:25;101396.74;;;38.44;20.22
75852;BME280;64500;52.632;20.656;2023-09-07T02:32:52;101399.20;;;38.47;20.00
75852;BME280;64500;52.632;20.656;2023-09-07T02:35:20;101399.83;;;38.45;20.12
75852;BME280;64500;52.632;20.656;2023-09-07T02:37:47;101401.25;;;38.41;20.14
75852;BME280;64500;52.632;20.656;2023-09-07T02:40:14;101399.95;;;38.45;20.00
75852;BME280;64500;52.632;20.656;2023-09-07T02:42:42;101404.94;;;38.35;19.86
75852;BME280;64500;52.632;20.656;2023-09-07T02:45:14;101404.00;;;38.19;20.04
75852;BME280;64500;52.632;20.656;2023-09-07T02:47:41;101401.36;;;38.18;20.02
75852;BME280;64500;52.632;20.656;2023-09-07T02:50:08;101397.40;;;38.22;20.02
75852;BME280;64500;52.632;20.656;2023-09-07T02:52:36;101399.91;;;38.15;20.13
75852;BME280;64500;52.632;20.656;2023-09-07T02:55:03;101400.64;;;38.23;20.22
75852;BME280;64500;52.632;20.656;2023-09-07T02:57:30;101402.73;;;38.25;20.02
75852;BME280;64500;52.632;20.656;2023-09-07T02:59:58;101404.89;;;38.25;20.04
75852;BME280;64500;52.632;20.656;2023-09-07T03:02:25;101405.38;;;38.23;20.05
75852;BME280;64500;52.632;20.656;2023-09-07T03:04:55;101402.73;;;38.19;20.06
75852;BME280;64500;52.632;20.656;2023-09-07T03:07:25;101402.89;;;38.22;20.07
75852;BME280;64500;52.632;20.656;2023-09-07T03:09:52;101407.39;;;38.05;20.19
75852;BME280;64500;52.632;20.656;2023-09-07T03:12:20;101409.38;;;38.04;20.23
75852;BME280;64500;52.632;20.656;2023-09-07T03:14:47;101414.91;;;38.05;20.28
75852;BME280;64500;52.632;20.656;2023-09-07T03:17:16;101418.33;;;37.99;20.38
75852;BME280;64500;52.632;20.656;2023-09-07T03:19:43;101416.14;;;38.02;20.31
75852;BME280;64500;52.632;20.656;2023-09-07T03:22:10;101420.77;;;38.07;20.07
75852;BME280;64500;52.632;20.656;2023-09-07T03:24:37;101422.41;;;38.12;20.16
75852;BME280;64500;52.632;20.656;2023-09-07T03:27:05;101417.71;;;38.18;20.12
75852;BME280;64500;52.632;20.656;2023-09-07T03:29:38;101424.44;;;38.15;20.05
75852;BME280;64500;52.632;20.656;2023-09-07T03:32:06;101423.27;;;38.08;20.15
75852;BME280;64500;52.632;20.656;2023-09-07T03:34:33;101420.79;;;38.01;20.07
75852;BME280;64500;52.632;20.656;2023-09-07T03:37:00;101421.38;;;37.94;19.91
75852;BME280;64500;52.632;20.656;2023-09-07T03:39:27;101422.76;;;37.88;20.11
75852;BME280;64500;52.632;20.656;2023-09-07T03:41:55;101421.00;;;37.91;20.05
75852;BME280;64500;52.632;20.656;2023-09-07T03:44:22;101425.38;;;37.88;20.04
75852;BME280;64500;52.632;20.656;2023-09-07T03:46:49;101428.46;;;37.86;19.94
75852;BME280;64500;52.632;20.656;2023-09-07T03:49:16;101422.86;;;37.67;19.99
75852;BME280;64500;52.632;20.656;2023-09-07T03:51:43;101426.76;;;37.62;20.12
75852;BME280;64500;52.632;20.656;2023-09-07T03:54:10;101425.35;;;37.67;20.22
75852;BME280;64500;52.632;20.656;2023-09-07T03:56:37;101428.92;;;37.70;19.86
75852;BME280;64500;52.632;20.656;2023-09-07T03:59:06;101427.56;;;37.80;20.14
75852;BME280;64500;52.632;20.656;2023-09-07T04:01:33;101427.90;;;37.83;20.01
75852;BME280;64500;52.632;20.656;2023-09-07T04:04:00;101421.75;;;37.70;20.09
75852;BME280;64500;52.632;20.656;2023-09-07T04:06:27;101428.10;;;37.56;19.96
75852;BME280;64500;52.632;20.656;2023-09-07T04:08:54;101425.53;;;37.45;20.29
75852;BME280;64500;52.632;20.656;2023-09-07T04:11:21;101426.55;;;37.55;19.92
75852;BME280;64500;52.632;20.656;2023-09-07T04:13:49;101434.77;;;37.42;20.07
75852;BME280;64500;52.632;20.656;2023-09-07T04:16:16;101434.25;;;37.22;19.97
75852;BME280;64500;52.632;20.656;2023-09-07T04:18:43;101428.23;;;37.12;20.41
75852;BME280;64500;52.632;20.656;2023-09-07T04:21:11;101431.52;;;37.37;20.57
75852;BME280;64500;52.632;20.656;2023-09-07T04:23:39;101438.80;;;37.62;20.48
75852;BME280;64500;52.632;20.656;2023-09-07T04:26:08;101434.77;;;37.72;20.25
75852;BME280;64500;52.632;20.656;2023-09-07T04:28:37;101438.98;;;37.71;20.50
75852;BME280;64500;52.632;20.656;2023-09-07T04:31:05;101440.80;;;37.73;20.22
75852;BME280;64500;52.632;20.656;2023-09-07T04:33:33;101444.12;;;37.94;20.36
75852;BME280;64500;52.632;20.656;2023-09-07T04:36:09;101445.23;;;38.08;20.34
75852;BME280;64500;52.632;20.656;2023-09-07T04:38:38;101445.59;;;38.20;20.76
75852;BME280;64500;52.632;20.656;2023-09-07T04:41:09;101445.53;;;38.47;20.68
75852;BME280;64500;52.632;20.656;2023-09-07T04:43:38;101446.15;;;38.84;20.55
75852;BME280;64500;52.632;20.656;2023-09-07T04:46:07;101447.22;;;39.25;20.40
75852;BME280;64500;52.632;20.656;2023-09-07T04:48:34;101449.25;;;39.50;20.41
75852;BME280;64500;52.632;20.656;2023-09-07T04:51:03;101456.27;;;39.74;20.28
75852;BME280;64500;52.632;20.656;2023-09-07T04:53:31;101457.80;;;40.07;20.26
75852;BME280;64500;52.632;20.656;2023-09-07T04:55:59;101463.03;;;40.33;20.35
75852;BME280;64500;52.632;20.656;2023-09-07T04:58:26;101461.95;;;40.48;19.94
75852;BME280;64500;52.632;20.656;2023-09-07T05:00:53;101461.27;;;40.82;19.90
75852;BME280;64500;52.632;20.656;2023-09-07T05:03:21;101467.11;;;41.19;19.72
75852;BME280;64500;52.632;20.656;2023-09-07T05:05:53;101464.76;;;41.44;19.99
75852;BME280;64500;52.632;20.656;2023-09-07T05:08:20;101472.61;;;41.54;19.73
75852;BME280;64500;52.632;20.656;2023-09-07T05:10:49;101477.13;;;41.72;19.73
75852;BME280;64500;52.632;20.656;2023-09-07T05:13:17;101474.30;;;41.73;19.65
75852;BME280;64500;52.632;20.656;2023-09-07T05:15:51;101477.30;;;42.00;19.64
75852;BME280;64500;52.632;20.656;2023-09-07T05:18:19;101480.73;;;42.25;19.37
75852;BME280;64500;52.632;20.656;2023-09-07T05:20:46;101482.35;;;42.42;19.40
75852;BME280;64500;52.632;20.656;2023-09-07T05:23:20;101482.11;;;42.47;19.59
75852;BME280;64500;52.632;20.656;2023-09-07T05:25:50;101481.58;;;42.45;19.45
75852;BME280;64500;52.632;20.656;2023-09-07T05:28:20;101483.30;;;42.65;19.51
75852;BME280;64500;52.632;20.656;2023-09-07T05:30:47;101478.53;;;42.97;19.56
75852;BME280;64500;52.632;20.656;2023-09-07T05:33:16;101483.34;;;43.24;19.18
75852;BME280;64500;52.632;20.656;2023-09-07T05:35:44;101483.39;;;43.33;19.45
75852;BME280;64500;52.632;20.656;2023-09-07T05:38:12;101481.69;;;43.51;19.50
75852;BME280;64500;52.632;20.656;2023-09-07T05:40:42;101486.77;;;43.69;19.45
75852;BME280;64500;52.632;20.656;2023-09-07T05:43:10;101491.02;;;43.96;19.25
75852;BME280;64500;52.632;20.656;2023-09-07T05:45:40;101491.56;;;44.09;19.43
75852;BME280;64500;52.632;20.656;2023-09-07T05:48:08;101495.27;;;44.16;19.12
75852;BME280;64500;52.632;20.656;2023-09-07T05:50:36;101493.65;;;44.07;19.20
75852;BME280;64500;52.632;20.656;2023-09-07T05:53:04;101498.08;;;44.11;19.10
75852;BME280;64500;52.632;20.656;2023-09-07T05:55:32;101497.86;;;44.18;19.10
75852;BME280;64500;52.632;20.656;2023-09-07T05:57:59;101499.20;;;44.24;18.95
75852;BME280;64500;52.632;20.656;2023-09-07T06:00:26;101502.44;;;44.13;18.67
75852;BME280;64500;52.632;20.656;2023-09-07T06:02:54;101500.98;;;44.19;18.98
75852;BME280;64500;52.632;20.656;2023-09-07T06:05:21;101501.48;;;44.50;19.01
75852;BME280;64500;52.632;20.656;2023-09-07T06:07:48;101499.31;;;44.80;19.11
75852;BME280;64500;52.632;20.656;2023-09-07T06:10:15;101501.24;;;45.13;18.97
75852;BME280;64500;52.632;20.656;2023-09-07T06:12:45;101497.64;;;45.25;18.71
75852;BME280;64500;52.632;20.656;2023-09-07T06:15:12;101498.66;;;45.21;18.67
75852;BME280;64500;52.632;20.656;2023-09-07T06:17:39;101503.70;;;45.31;18.77
75852;BME280;64500;52.632;20.656;2023-09-07T06:20:07;101509.20;;;45.53;18.68
75852;BME280;64500;52.632;20.656;2023-09-07T06:22:35;101512.83;;;45.70;18.69
75852;BME280;64500;52.632;20.656;2023-09-07T06:25:02;101512.53;;;45.72;18.48
75852;BME280;64500;52.632;20.656;2023-09-07T06:27:30;101514.00;;;45.86;18.70
75852;BME280;64500;52.632;20.656;2023-09-07T06:29:58;101515.23;;;46.05;18.65
75852;BME280;64500;52.632;20.656;2023-09-07T06:32:25;101519.81;;;46.15;18.46
75852;BME280;64500;52.632;20.656;2023-09-07T06:34:52;101517.37;;;46.08;18.23
75852;BME280;64500;52.632;20.656;2023-09-07T06:37:19;101518.46;;;46.07;18.57
75852;BME280;64500;52.632;20.656;2023-09-07T06:39:47;101517.48;;;46.09;18.25
75852;BME280;64500;52.632;20.656;2023-09-07T06:42:14;101526.30;;;46.14;18.05
75852;BME280;64500;52.632;20.656;2023-09-07T06:44:42;101516.63;;;45.91;18.14
75852;BME280;64500;52.632;20.656;2023-09-07T06:47:10;101521.54;;;46.07;18.07
75852;BME280;64500;52.632;20.656;2023-09-07T06:49:38;101526.95;;;46.34;18.15
75852;BME280;64500;52.632;20.656;2023-09-07T06:52:05;101524.11;;;46.74;18.19
75852;BME280;64500;52.632;20.656;2023-09-07T06:54:32;101525.88;;;47.17;17.78
75852;BME280;64500;52.632;20.656;2023-09-07T06:56:59;101525.28;;;47.27;17.65
75852;BME280;64500;52.632;20.656;2023-09-07T06:59:26;101529.33;;;47.21;17.48
75852;BME280;64500;52.632;20.656;2023-09-07T07:01:53;101528.84;;;47.05;17.56
75852;BME280;64500;52.632;20.656;2023-09-07T07:04:21;101530.65;;;47.13;17.53
75852;BME280;64500;52.632;20.656;2023-09-07T07:06:47;101529.90;;;47.01;17.25
75852;BME280;64500;52.632;20.656;2023-09-07T07:09:15;101534.09;;;46.69;17.37
75852;BME280;64500;52.632;20.656;2023-09-07T07:11:41;101533.56;;;46.70;17.38
75852;BME280;64500;52.632;20.656;2023-09-07T07:14:10;101533.02;;;46.96;17.55
75852;BME280;64500;52.632;20.656;2023-09-07T07:16:38;101535.44;;;47.27;17.48
75852;BME280;64500;52.632;20.656;2023-09-07T07:19:05;101542.64;;;47.45;17.49
75852;BME280;64500;52.632;20.656;2023-09-07T07:21:33;101538.01;;;47.81;17.52
75852;BME280;64500;52.632;20.656;2023-09-07T07:24:00;101537.99;;;48.05;17.25
75852;BME280;64500;52.632;20.656;2023-09-07T07:26:29;101535.15;;;48.15;17.27
75852;BME280;64500;52.632;20.656;2023-09-07T07:28:56;101536.77;;;48.25;16.92
75852;BME280;64500;52.632;20.656;2023-09-07T07:31:23;101539.45;;;48.54;16.87
75852;BME280;64500;52.632;20.656;2023-09-07T07:33:50;101540.92;;;48.59;16.70
75852;BME280;64500;52.632;20.656;2023-09-07T07:36:17;101537.63;;;48.56;16.63
75852;BME280;64500;52.632;20.656;2023-09-07T07:38:44;101537.39;;;48.70;16.67
75852;BME280;64500;52.632;20.656;2023-09-07T07:41:12;101538.38;;;48.78;16.32
75852;BME280;64500;52.632;20.656;2023-09-07T07:43:39;101541.48;;;48.69;16.48
75852;BME280;64500;52.632;20.656;2023-09-07T07:46:08;101542.16;;;48.70;16.55
75852;BME280;64500;52.632;20.656;2023-09-07T07:48:35;101540.34;;;48.72;16.22
75852;BME280;64500;52.632;20.656;2023-09-07T07:51:03;101538.09;;;48.56;16.03
75852;BME280;64500;52.632;20.656;2023-09-07T07:53:31;101544.30;;;48.63;16.42
75852;BME280;64500;52.632;20.656;2023-09-07T07:55:58;101541.44;;;48.70;16.16
75852;BME280;64500;52.632;20.656;2023-09-07T07:58:26;101543.23;;;48.70;16.27
75852;BME280;64500;52.632;20.656;2023-09-07T08:00:53;101545.95;;;48.60;16.12
75852;BME280;64500;52.632;20.656;2023-09-07T08:03:20;101545.85;;;48.66;16.31
75852;BME280;64500;52.632;20.656;2023-09-07T08:05:48;101547.59;;;48.60;16.11
75852;BME280;64500;52.632;20.656;2023-09-07T08:08:15;101546.73;;;48.60;16.13
75852;BME280;64500;52.632;20.656;2023-09-07T08:10:42;101546.98;;;48.53;16.03
75852;BME280;64500;52.632;20.656;2023-09-07T08:13:09;101544.42;;;48.55;16.15
75852;BME280;64500;52.632;20.656;2023-09-07T08:15:36;101549.35;;;48.62;15.95
75852;BME280;64500;52.632;20.656;2023-09-07T08:18:04;101544.16;;;48.66;16.26
75852;BME280;64500;52.632;20.656;2023-09-07T08:20:32;101545.86;;;48.74;15.89
75852;BME280;64500;52.632;20.656;2023-09-07T08:23:00;101548.30;;;48.94;16.21
75852;BME280;64500;52.632;20.656;2023-09-07T08:25:30;101542.67;;;49.24;16.03
75852;BME280;64500;52.632;20.656;2023-09-07T08:27:57;101543.25;;;49.43;15.80
75852;BME280;64500;52.632;20.656;2023-09-07T08:30:27;101543.52;;;49.62;15.80
75852;BME280;64500;52.632;20.656;2023-09-07T08:32:54;101545.49;;;49.68;15.90
75852;BME280;64500;52.632;20.656;2023-09-07T08:35:22;101542.77;;;49.75;15.70
75852;BME280;64500;52.632;20.656;2023-09-07T08:37:56;101543.81;;;49.85;15.66
75852;BME280;64500;52.632;20.656;2023-09-07T08:40:26;101546.25;;;49.97;15.68
75852;BME280;64500;52.632;20.656;2023-09-07T08:42:54;101545.01;;;49.96;15.16
75852;BME280;64500;52.632;20.656;2023-09-07T08:45:22;101544.84;;;50.05;15.26
75852;BME280;64500;52.632;20.656;2023-09-07T08:47:52;101550.90;;;50.38;15.34
75852;BME280;64500;52.632;20.656;2023-09-07T08:50:20;101547.67;;;50.51;15.32
75852;BME280;64500;52.632;20.656;2023-09-07T08:52:53;101551.83;;;50.45;15.19
75852;BME280;64500;52.632;20.656;2023-09-07T08:55:21;101552.13;;;50.56;15.24
75852;BME280;64500;52.632;20.656;2023-09-07T08:57:48;101545.42;;;50.59;14.96
75852;BME280;64500;52.632;20.656;2023-09-07T09:00:16;101548.96;;;50.65;15.14
75852;BME280;64500;52.632;20.656;2023-09-07T09:02:46;101547.80;;;50.68;14.61
75852;BME280;64500;52.632;20.656;2023-09-07T09:05:15;101551.77;;;50.74;14.70
75852;BME280;64500;52.632;20.656;2023-09-07T09:07:42;101548.50;;;50.76;14.96
75852;BME280;64500;52.632;20.656;2023-09-07T09:10:10;101552.63;;;50.80;14.69
75852;BME280;64500;52.632;20.656;2023-09-07T09:12:46;101548.30;;;50.69;14.37
75852;BME280;64500;52.632;20.656;2023-09-07T09:15:15;101551.06;;;50.58;14.44
75852;BME280;64500;52.632;20.656;2023-09-07T09:17:42;101550.89;;;50.52;14.32
75852;BME280;64500;52.632;20.656;2023-09-07T09:22:53;101548.75;;;50.90;14.53
75852;BME280;64500;52.632;20.656;2023-09-07T09:25:21;101545.48;;;50.91;14.11
75852;BME280;64500;52.632;20.656;2023-09-07T09:27:49;101545.14;;;50.97;14.31
75852;BME280;64500;52.632;20.656;2023-09-07T09:30:16;101541.90;;;51.05;13.82
75852;BME280;64500;52.632;20.656;2023-09-07T09:32:44;101538.86;;;51.13;13.84
75852;BME280;64500;52.632;20.656;2023-09-07T09:35:11;101542.21;;;51.38;13.82
75852;BME280;64500;52.632;20.656;2023-09-07T09:37:45;101542.36;;;51.55;13.82
75852;BME280;64500;52.632;20.656;2023-09-07T09:40:14;101543.45;;;51.67;13.56
75852;BME280;64500;52.632;20.656;2023-09-07T09:42:43;101542.77;;;51.66;13.63
75852;BME280;64500;52.632;20.656;2023-09-07T09:45:12;101542.98;;;51.58;13.64
75852;BME280;64500;52.632;20.656;2023-09-07T09:47:42;101540.66;;;51.57;13.37
75852;BME280;64500;52.632;20.656;2023-09-07T09:50:10;101538.98;;;51.40;13.25
75852;BME280;64500;52.632;20.656;2023-09-07T09:52:38;101538.14;;;51.35;13.68
75852;BME280;64500;52.632;20.656;2023-09-07T09:55:07;101542.25;;;51.58;13.04
75852;BME280;64500;52.632;20.656;2023-09-07T09:57:35;101541.17;;;51.62;13.21
75852;BME280;64500;52.632;20.656;2023-09-07T10:00:06;101542.19;;;51.75;12.94
75852;BME280;64500;52.632;20.656;2023-09-07T10:03:02;101545.65;;;51.71;12.73
75852;BME280;64500;52.632;20.656;2023-09-07T10:05:31;101546.04;;;51.66;12.92
75852;BME280;64500;52.632;20.656;2023-09-07T10:08:03;101542.52;;;51.67;12.92
75852;BME280;64500;52.632;20.656;2023-09-07T10:10:35;101536.10;;;51.98;12.90
75852;BME280;64500;52.632;20.656;2023-09-07T10:13:03;101539.77;;;52.34;12.71
75852;BME280;64500;52.632;20.656;2023-09-07T10:15:31;101537.86;;;52.27;12.65
75852;BME280;64500;52.632;20.656;2023-09-07T10:18:10;101536.79;;;52.26;12.60
75852;BME280;64500;52.632;20.656;2023-09-07T10:20:55;101534.46;;;52.16;12.33
75852;BME280;64500;52.632;20.656;2023-09-07T10:23:45;101534.02;;;52.52;12.87
75852;BME280;64500;52.632;20.656;2023-09-07T10:26:16;101533.91;;;52.83;12.58
75852;BME280;64500;52.632;20.656;2023-09-07T10:28:44;101532.05;;;52.81;12.32
75852;BME280;64500;52.632;20.656;2023-09-07T10:31:19;101533.27;;;52.54;12.17
75852;BME280;64500;52.632;20.656;2023-09-07T10:33:47;101532.47;;;52.55;12.18
75852;BME280;64500;52.632;20.656;2023-09-07T10:36:24;101531.31;;;52.38;11.89
75852;BME280;64500;52.632;20.656;2023-09-07T10:38:51;101528.48;;;52.39;12.26
75852;BME280;64500;52.632;20.656;2023-09-07T10:41:22;101528.80;;;52.27;11.88
75852;BME280;64500;52.632;20.656;2023-09-07T10:43:51;101522.33;;;52.03;11.66
75852;BME280;64500;52.632;20.656;2023-09-07T10:46:23;101528.98;;;51.89;11.53
75852;BME280;64500;52.632;20.656;2023-09-07T10:48:51;101536.89;;;51.60;11.64
75852;BME280;64500;52.632;20.656;2023-09-07T10:51:19;101534.98;;;51.38;12.14
75852;BME280;64500;52.632;20.656;2023-09-07T10:53:47;101531.15;;;51.39;11.94
75852;BME280;64500;52.632;20.656;2023-09-07T10:56:14;101531.36;;;51.35;11.91
75852;BME280;64500;52.632;20.656;2023-09-07T10:58:42;101522.64;;;51.15;11.76
75852;BME280;64500;52.632;20.656;2023-09-07T11:01:11;101523.84;;;51.29;12.24
75852;BME280;64500;52.632;20.656;2023-09-07T11:03:38;101527.45;;;51.56;12.20
75852;BME280;64500;52.632;20.656;2023-09-07T11:06:09;101529.59;;;51.74;12.23
75852;BME280;64500;52.632;20.656;2023-09-07T11:08:37;101524.75;;;51.86;11.93
75852;BME280;64500;52.632;20.656;2023-09-07T11:11:05;101525.88;;;51.84;11.86
75852;BME280;64500;52.632;20.656;2023-09-07T11:13:33;101520.15;;;51.57;11.88
75852;BME280;64500;52.632;20.656;2023-09-07T11:16:01;101513.95;;;51.89;12.15
75852;BME280;64500;52.632;20.656;2023-09-07T11:18:29;101518.05;;;52.50;11.77
75852;BME280;64500;52.632;20.656;2023-09-07T11:20:57;101512.98;;;52.65;11.75
75852;BME280;64500;52.632;20.656;2023-09-07T11:23:26;101511.34;;;52.72;11.89
75852;BME280;64500;52.632;20.656;2023-09-07T11:25:54;101513.08;;;52.81;11.60
75852;BME280;64500;52.632;20.656;2023-09-07T11:28:21;101514.45;;;52.80;11.47
75852;BME280;64500;52.632;20.656;2023-09-07T11:30:53;101516.73;;;52.79;11.66
75852;BME280;64500;52.632;20.656;2023-09-07T11:33:22;101518.89;;;52.83;11.50
75852;BME280;64500;52.632;20.656;2023-09-07T11:35:50;101517.36;;;53.01;11.32
75852;BME280;64500;52.632;20.656;2023-09-07T11:38:18;101515.08;;;53.01;11.00
75852;BME280;64500;52.632;20.656;2023-09-07T11:40:45;101515.13;;;53.04;11.10
75852;BME280;64500;52.632;20.656;2023-09-07T11:43:14;101515.80;;;53.49;11.20
75852;BME280;64500;52.632;20.656;2023-09-07T11:45:43;101505.64;;;53.90;10.59
75852;BME280;64500;52.632;20.656;2023-09-07T11:48:10;101506.89;;;53.26;10.40
75852;BME280;64500;52.632;20.656;2023-09-07T11:50:39;101511.36;;;52.91;10.77
75852;BME280;64500;52.632;20.656;2023-09-07T11:53:07;101501.45;;;52.65;10.77
75852;BME280;64500;52.632;20.656;2023-09-07T11:55:35;101506.32;;;52.36;10.99
75852;BME280;64500;52.632;20.656;2023-09-07T11:58:03;101502.95;;;52.17;11.29
75852;BME280;64500;52.632;20.656;2023-09-07T12:00:34;101502.46;;;52.35;11.25
75852;BME280;64500;52.632;20.656;2023-09-07T12:03:01;101503.18;;;52.50;10.93
75852;BME280;64500;52.632;20.656;2023-09-07T12:05:28;101507.52;;;52.64;11.12
75852;BME280;64500;52.632;20.656;2023-09-07T12:07:55;101504.33;;;52.85;11.15
75852;BME280;64500;52.632;20.656;2023-09-07T12:10:22;101499.77;;;53.23;10.85
75852;BME280;64500;52.632;20.656;2023-09-07T12:12:49;101500.23;;;53.38;10.61
75852;BME280;64500;52.632;20.656;2023-09-07T12:15:16;101499.45;;;53.49;10.60
75852;BME280;64500;52.632;20.656;2023-09-07T12:17:43;101501.05;;;53.80;10.64
75852;BME280;64500;52.632;20.656;2023-09-07T12:20:11;101502.58;;;54.15;10.18
75852;BME280;64500;52.632;20.656;2023-09-07T12:22:40;101501.52;;;54.21;10.34
75852;BME280;64500;52.632;20.656;2023-09-07T12:25:08;101496.96;;;54.36;10.28
75852;BME280;64500;52.632;20.656;2023-09-07T12:27:37;101494.45;;;54.32;10.27
75852;BME280;64500;52.632;20.656;2023-09-07T12:30:05;101495.20;;;54.48;10.07
75852;BME280;64500;52.632;20.656;2023-09-07T12:32:41;101498.68;;;54.62;10.23
75852;BME280;64500;52.632;20.656;2023-09-07T12:35:08;101501.26;;;54.57;10.12
75852;BME280;64500;52.632;20.656;2023-09-07T12:37:36;101493.45;;;54.43;10.32
75852;BME280;64500;52.632;20.656;2023-09-07T12:40:03;101493.33;;;54.47;9.80
75852;BME280;64500;52.632;20.656;2023-09-07T12:42:49;101492.33;;;54.04;9.92
75852;BME280;64500;52.632;20.656;2023-09-07T12:45:16;101488.83;;;53.92;10.00
75852;BME280;64500;52.632;20.656;2023-09-07T12:47:44;101485.33;;;54.27;10.02
75852;BME280;64500;52.632;20.656;2023-09-07T12:50:12;101481.64;;;54.31;9.97